Portales, NM (88130)

5:52 AM MDT on September 30, 2014 (GMT -0600)
S of ENMU | Change Station
CLOSE
Current Station
Personal Weather Station
Location: Portales, NM
Elevation: 4078 ft
Nearby Weather Stations

Elev 4078 ft 34.17 °N, 103.35 °W | Updated 7 seconds ago

Clear
Clear
62.5 °F
Feels Like 62.5 °F
N
0.0
Wind Variable Wind from NE
Gusts 0.9 mph

Today
High -- | Low -- °F
--% Chance of Precip.
Yesterday
High -- | Low -- °F
Precip. -- in
6:47 AM 6:38 PM
Waxing Crescent, 36% visible
Pressure 29.78 in
Visibility 10.0 miles
Clouds Clear
Dew Point 53 °F
Humidity 70%
Rainfall 0.00 in
Snow Depth 1 in , 0 in , 4 in
UV 0 out of 12
Pollen 8.80 out of 12
Air Quality Not available.
Flu Activity Not available.
METAR KCVS 301058Z AUTO 19002KT 10SM CLR 15/13 A2994 RMK AO2 SLP085 T01520131 $

More Conditions Fewer Conditions

Pressure 29.78 in
Visibility 10.0 miles
Clouds Clear
Dew Point 53 °F
Humidity 70%
Rainfall 0.00 in
Snow Depth 1 in , 0 in , 4 in
UV 0 out of 12
Pollen 8.80 out of 12
Air Quality Not available.
Flu Activity Not available.
METAR KCVS 301058Z AUTO 19002KT 10SM CLR 15/13 A2994 RMK AO2 SLP085 T01520131 $

More Conditions Fewer Conditions

10-Day Weather Forecast

Almanac

Astronomy

Sep. 30, 2014 Rise Set
Actual Time 6:47 AM MDT 6:38 PM MDT
Civil Twilight 6:22 AM MDT 7:03 PM MDT
Nautical Twilight 5:53 AM MDT 7:32 PM MDT
Astronomical Twilight 5:23 AM MDT 8:01 PM MDT
Moon 12:45 PM MDT 11:22 PM MDT
Length of Visible Light 12h 41m
Length of Day
11h 51m
Tomorrow will be 2m 7s shorter.
Waxing Crescent, 36% of the Moon is Illuminated
Today
Waxing Crescent
Oct 1
First Quarter
Oct 8
Full
Oct 15
Last Quarter
Oct 23
New

Today's Extremes

State Highs State Lows

Community

WunderPhotos

Upload Photos

1,757,618 photos uploaded!

Nearby

Snow Depth

Station Depth Elevation
Hopewell 1 in 10000 ft
McKnight Cabin 0 in 9240 ft
Elk Cabin 1 in 8210 ft
Wesner Springs 4 in 11120 ft
Quemazon 2 in 9500 ft

Earthquake Activity

City Distance Mag. Time & Date
No recent earthquake activity has been reported nearby.
Minimum magnitude displayed is 2.5.

Coastal Water Temperatures

Place Temperature
No Stations Reporting

Nearby Weather Stations